Time,TemperatureF,DewpointF,PressureIn,WindDirection,WindDirectionDegrees,WindSpeedMPH,WindSpeedGustMPH,Humidity,HourlyPrecipIn,Conditions,Clouds,dailyrainin,SoftwareType,DateUTC
2013-08-04 00:02:00,66.6,45.7,30.12,North,0,0.0,0.0,47,0.00,,,0.00,WUHU216HW,2013-08-04 06:02:00,
2013-08-04 00:07:00,66.4,46.2,30.13,North,0,0.0,0.0,48,0.00,,,0.00,WUHU216HW,2013-08-04 06:07:00,
2013-08-04 00:12:00,66.2,46.0,30.12,North,0,0.0,0.0,48,0.00,,,0.00,WUHU216HW,2013-08-04 06:12:00,
2013-08-04 00:17:00,66.2,46.5,30.12,North,0,0.0,0.0,49,0.00,,,0.00,WUHU216HW,2013-08-04 06:17:00,
2013-08-04 00:22:00,66.2,46.5,30.13,North,0,0.0,0.0,49,0.00,,,0.00,WUHU216HW,2013-08-04 06:22:00,
2013-08-04 00:27:00,66.2,47.2,30.13,North,0,0.0,0.0,50,0.00,,,0.00,WUHU216HW,2013-08-04 06:27:00,
2013-08-04 00:32:00,66.1,47.0,30.13,North,0,0.0,0.0,50,0.00,,,0.00,WUHU216HW,2013-08-04 06:32:00,
2013-08-04 00:37:00,65.9,47.3,30.13,North,0,0.0,0.0,51,0.00,,,0.00,WUHU216HW,2013-08-04 06:37:00,
2013-08-04 00:42:00,65.7,47.1,30.13,North,0,0.0,0.0,51,0.00,,,0.00,WUHU216HW,2013-08-04 06:42:00,
2013-08-04 00:47:00,65.3,47.3,30.12,North,0,0.0,0.0,52,0.00,,,0.00,WUHU216HW,2013-08-04 06:47:00,
2013-08-04 00:52:00,64.6,47.0,30.13,North,0,0.0,0.0,53,0.00,,,0.00,WUHU216HW,2013-08-04 06:52:00,
2013-08-04 00:57:00,64.6,47.5,30.13,North,0,0.0,0.0,54,0.00,,,0.00,WUHU216HW,2013-08-04 06:57:00,
2013-08-04 01:02:00,64.8,47.2,30.13,North,0,0.0,0.0,53,0.00,,,0.00,WUHU216HW,2013-08-04 07:02:00,
2013-08-04 01:07:00,64.4,46.8,30.13,North,0,0.0,0.0,53,0.00,,,0.00,WUHU216HW,2013-08-04 07:07:00,
2013-08-04 01:12:00,64.3,47.2,30.13,North,0,0.0,0.0,54,0.00,,,0.00,WUHU216HW,2013-08-04 07:12:00,
2013-08-04 01:17:00,63.7,46.6,30.13,North,0,0.0,0.0,54,0.00,,,0.00,WUHU216HW,2013-08-04 07:17:00,
2013-08-04 01:22:00,63.4,46.8,30.13,North,0,0.0,0.0,55,0.00,,,0.00,WUHU216HW,2013-08-04 07:22:00,
2013-08-04 01:27:00,62.8,46.8,30.13,North,0,0.0,0.0,56,0.00,,,0.00,WUHU216HW,2013-08-04 07:27:00,
2013-08-04 01:32:00,62.5,47.0,30.13,North,0,0.0,0.0,57,0.00,,,0.00,WUHU216HW,2013-08-04 07:32:00,
2013-08-04 01:37:00,62.3,45.8,30.13,North,0,0.0,0.0,55,0.00,,,0.00,WUHU216HW,2013-08-04 07:37:00,
2013-08-04 01:42:00,61.7,45.4,30.13,North,0,0.0,0.0,55,0.00,,,0.00,WUHU216HW,2013-08-04 07:42:00,
2013-08-04 01:47:00,61.4,45.0,30.13,North,0,0.0,0.0,55,0.00,,,0.00,WUHU216HW,2013-08-04 07:47:00,
2013-08-04 01:52:00,60.8,44.6,30.14,North,0,0.0,0.0,55,0.00,,,0.00,WUHU216HW,2013-08-04 07:52:00,
2013-08-04 01:57:00,60.5,44.2,30.13,North,0,0.0,0.0,55,0.00,,,0.00,WUHU216HW,2013-08-04 07:57:00,
2013-08-04 02:02:00,59.9,43.7,30.13,North,0,0.0,0.0,55,0.00,,,0.00,WUHU216HW,2013-08-04 08:02:00,
2013-08-04 02:07:00,59.4,43.7,30.13,North,0,0.0,0.0,56,0.00,,,0.00,WUHU216HW,2013-08-04 08:07:00,
2013-08-04 02:12:00,59.2,44.5,30.13,North,0,0.0,0.0,58,0.00,,,0.00,WUHU216HW,2013-08-04 08:12:00,
2013-08-04 02:17:00,59.0,44.3,30.14,North,0,0.0,0.0,58,0.00,,,0.00,WUHU216HW,2013-08-04 08:17:00,
2013-08-04 02:22:00,58.7,43.9,30.14,North,0,0.0,0.0,58,0.00,,,0.00,WUHU216HW,2013-08-04 08:22:00,
2013-08-04 02:27:00,58.7,44.4,30.14,North,0,0.0,0.0,59,0.00,,,0.00,WUHU216HW,2013-08-04 08:27:00,
2013-08-04 02:32:00,58.5,44.2,30.14,North,0,0.0,0.0,59,0.00,,,0.00,WUHU216HW,2013-08-04 08:32:00,
2013-08-04 02:37:00,58.3,44.1,30.15,North,0,0.0,0.0,59,0.00,,,0.00,WUHU216HW,2013-08-04 08:37:00,
2013-08-04 02:42:00,58.0,43.7,30.15,North,0,0.0,0.0,59,0.00,,,0.00,WUHU216HW,2013-08-04 08:42:00,
2013-08-04 02:47:00,57.8,44.0,30.15,North,0,0.0,0.0,60,0.00,,,0.00,WUHU216HW,2013-08-04 08:47:00,
2013-08-04 02:52:00,57.6,43.9,30.15,North,0,0.0,0.0,60,0.00,,,0.00,WUHU216HW,2013-08-04 08:52:00,
2013-08-04 02:57:00,57.4,43.8,30.15,North,0,0.0,0.0,60,0.00,,,0.00,WUHU216HW,2013-08-04 08:57:00,
2013-08-04 03:02:00,57.2,43.9,30.15,North,0,0.0,0.0,61,0.00,,,0.00,WUHU216HW,2013-08-04 09:02:00,
2013-08-04 03:07:00,57.2,43.9,30.15,North,0,0.0,0.0,61,0.00,,,0.00,WUHU216HW,2013-08-04 09:07:00,
2013-08-04 03:12:00,56.9,43.2,30.15,North,0,0.0,0.0,60,0.00,,,0.00,WUHU216HW,2013-08-04 09:12:00,
2013-08-04 03:17:00,56.5,43.2,30.15,North,0,0.0,0.0,61,0.00,,,0.00,WUHU216HW,2013-08-04 09:17:00,
2013-08-04 03:22:00,56.2,42.9,30.15,North,0,0.0,0.0,61,0.00,,,0.00,WUHU216HW,2013-08-04 09:22:00,
2013-08-04 03:27:00,56.0,43.6,30.15,North,0,0.0,0.0,63,0.00,,,0.00,WUHU216HW,2013-08-04 09:27:00,
2013-08-04 03:32:00,56.2,44.1,30.15,North,0,0.0,0.0,64,0.00,,,0.00,WUHU216HW,2013-08-04 09:32:00,
2013-08-04 03:37:00,56.3,44.3,30.15,North,0,0.0,0.0,64,0.00,,,0.00,WUHU216HW,2013-08-04 09:37:00,
2013-08-04 03:42:00,56.3,44.3,30.15,North,0,0.0,0.0,64,0.00,,,0.00,WUHU216HW,2013-08-04 09:42:00,
2013-08-04 03:47:00,56.2,44.1,30.15,North,0,0.0,0.0,64,0.00,,,0.00,WUHU216HW,2013-08-04 09:47:00,
2013-08-04 03:52:00,56.0,43.9,30.15,North,0,0.0,0.0,64,0.00,,,0.00,WUHU216HW,2013-08-04 09:52:00,
2013-08-04 03:57:00,55.8,43.7,30.15,North,0,0.0,0.0,64,0.00,,,0.00,WUHU216HW,2013-08-04 09:57:00,
2013-08-04 04:02:00,55.3,43.7,30.15,North,0,0.0,0.0,65,0.00,,,0.00,WUHU216HW,2013-08-04 10:02:00,
2013-08-04 04:07:00,55.1,43.9,30.15,North,0,0.0,0.0,66,0.00,,,0.00,WUHU216HW,2013-08-04 10:07:00,
2013-08-04 04:12:00,54.9,44.6,30.15,North,0,0.0,0.0,68,0.00,,,0.00,WUHU216HW,2013-08-04 10:12:00,
2013-08-04 04:17:00,54.7,45.2,30.16,North,0,0.0,0.0,70,0.00,,,0.00,WUHU216HW,2013-08-04 10:17:00,
2013-08-04 04:22:00,54.7,43.9,30.15,North,0,0.0,0.0,67,0.00,,,0.00,WUHU216HW,2013-08-04 10:22:00,
2013-08-04 04:27:00,54.5,43.4,30.15,North,0,0.0,0.0,66,0.00,,,0.00,WUHU216HW,2013-08-04 10:27:00,
2013-08-04 04:32:00,54.7,43.6,30.16,North,0,0.0,0.0,66,0.00,,,0.00,WUHU216HW,2013-08-04 10:32:00,
2013-08-04 04:37:00,54.7,43.6,30.16,North,0,0.0,0.0,66,0.00,,,0.00,WUHU216HW,2013-08-04 10:37:00,
2013-08-04 04:42:00,54.4,43.7,30.16,North,0,0.0,0.0,67,0.00,,,0.00,WUHU216HW,2013-08-04 10:42:00,
2013-08-04 04:47:00,54.4,44.0,30.16,North,0,0.0,0.0,68,0.00,,,0.00,WUHU216HW,2013-08-04 10:47:00,
2013-08-04 04:52:00,54.5,44.2,30.16,North,0,0.0,0.0,68,0.00,,,0.00,WUHU216HW,2013-08-04 10:52:00,
2013-08-04 04:57:00,54.7,44.7,30.16,North,0,0.0,0.0,69,0.00,,,0.00,WUHU216HW,2013-08-04 10:57:00,
2013-08-04 05:02:00,54.7,44.4,30.16,North,0,0.0,0.0,68,0.00,,,0.00,WUHU216HW,2013-08-04 11:02:00,
2013-08-04 05:07:00,54.7,44.7,30.16,North,0,0.0,0.0,69,0.00,,,0.00,WUHU216HW,2013-08-04 11:07:00,
2013-08-04 05:12:00,54.7,44.7,30.16,North,0,0.0,0.0,69,0.00,,,0.00,WUHU216HW,2013-08-04 11:12:00,
2013-08-04 05:17:00,54.5,44.6,30.16,North,0,0.0,0.0,69,0.00,,,0.00,WUHU216HW,2013-08-04 11:17:00,
2013-08-04 05:22:00,54.2,43.5,30.16,North,0,0.0,0.0,67,0.00,,,0.00,WUHU216HW,2013-08-04 11:22:00,
2013-08-04 05:27:00,53.5,42.8,30.16,North,0,0.0,0.0,67,0.00,,,0.00,WUHU216HW,2013-08-04 11:27:00,
2013-08-04 05:32:00,53.1,42.4,30.17,North,0,0.0,0.0,67,0.00,,,0.00,WUHU216HW,2013-08-04 11:32:00,
2013-08-04 05:37:00,52.7,42.1,30.17,North,0,0.0,0.0,67,0.00,,,0.00,WUHU216HW,2013-08-04 11:37:00,
2013-08-04 05:42:00,52.4,42.1,30.17,North,0,0.0,0.0,68,0.00,,,0.00,WUHU216HW,2013-08-04 11:42:00,
2013-08-04 05:47:00,52.2,42.4,30.16,North,0,0.0,0.0,69,0.00,,,0.00,WUHU216HW,2013-08-04 11:47:00,
2013-08-04 05:52:00,52.2,43.1,30.17,North,0,0.0,0.0,71,0.00,,,0.00,WUHU216HW,2013-08-04 11:52:00,
2013-08-04 05:57:00,52.2,43.8,30.16,North,0,0.0,0.0,73,0.00,,,0.00,WUHU216HW,2013-08-04 11:57:00,
2013-08-04 06:02:00,52.2,43.5,30.17,North,0,0.0,0.0,72,0.00,,,0.00,WUHU216HW,2013-08-04 12:02:00,
2013-08-04 06:07:00,52.0,43.3,30.17,North,0,0.0,0.0,72,0.00,,,0.00,WUHU216HW,2013-08-04 12:07:00,
2013-08-04 06:12:00,51.8,43.2,30.17,North,0,0.0,0.0,72,0.00,,,0.00,WUHU216HW,2013-08-04 12:12:00,
2013-08-04 06:17:00,51.8,43.2,30.17,North,0,0.0,0.0,72,0.00,,,0.00,WUHU216HW,2013-08-04 12:17:00,
2013-08-04 06:22:00,51.7,43.0,30.17,North,0,0.0,0.0,72,0.00,,,0.00,WUHU216HW,2013-08-04 12:22:00,
2013-08-04 06:27:00,51.7,43.0,30.17,North,0,0.0,0.0,72,0.00,,,0.00,WUHU216HW,2013-08-04 12:27:00,
2013-08-04 06:32:00,51.8,44.2,30.17,North,0,0.0,0.0,75,0.00,,,0.00,WUHU216HW,2013-08-04 12:32:00,
2013-08-04 06:37:00,52.0,45.4,30.17,North,0,0.0,0.0,78,0.00,,,0.00,WUHU216HW,2013-08-04 12:37:00,
2013-08-04 06:42:00,52.0,45.1,30.17,North,0,0.0,0.0,77,0.00,,,0.00,WUHU216HW,2013-08-04 12:42:00,
2013-08-04 06:47:00,52.2,44.6,30.17,North,0,0.0,0.0,75,0.00,,,0.00,WUHU216HW,2013-08-04 12:47:00,
2013-08-04 06:52:00,52.2,44.2,30.17,North,0,0.0,0.0,74,0.00,,,0.00,WUHU216HW,2013-08-04 12:52:00,
2013-08-04 06:57:00,52.2,44.2,30.17,North,0,0.0,0.0,74,0.00,,,0.00,WUHU216HW,2013-08-04 12:57:00,
2013-08-04 07:02:00,52.6,44.6,30.17,North,0,0.0,0.0,74,0.00,,,0.00,WUHU216HW,2013-08-04 13:02:00,
2013-08-04 07:07:00,52.7,44.7,30.17,North,0,0.0,0.0,74,0.00,,,0.00,WUHU216HW,2013-08-04 13:07:00,
2013-08-04 07:12:00,53.3,45.5,30.17,North,0,0.0,0.0,75,0.00,,,0.00,WUHU216HW,2013-08-04 13:12:00,
2013-08-04 07:17:00,53.8,46.1,30.17,North,0,0.0,0.0,75,0.00,,,0.00,WUHU216HW,2013-08-04 13:17:00,
2013-08-04 07:22:00,54.4,46.3,30.17,North,0,0.0,0.0,74,0.00,,,0.00,WUHU216HW,2013-08-04 13:22:00,
2013-08-04 07:27:00,54.5,46.1,30.17,North,0,0.0,0.0,73,0.00,,,0.00,WUHU216HW,2013-08-04 13:27:00,
2013-08-04 07:32:00,54.9,46.1,30.17,North,0,0.0,0.0,72,0.00,,,0.00,WUHU216HW,2013-08-04 13:32:00,
2013-08-04 07:37:00,55.1,46.3,30.17,North,0,0.0,0.0,72,0.00,,,0.00,WUHU216HW,2013-08-04 13:37:00,
2013-08-04 07:42:00,55.4,46.3,30.17,North,0,0.0,0.0,71,0.00,,,0.00,WUHU216HW,2013-08-04 13:42:00,
2013-08-04 07:47:00,55.8,46.5,30.18,North,0,0.0,0.0,71,0.00,,,0.00,WUHU216HW,2013-08-04 13:47:00,
2013-08-04 07:52:00,56.2,46.9,30.18,North,0,0.0,0.0,71,0.00,,,0.00,WUHU216HW,2013-08-04 13:52:00,
2013-08-04 07:57:00,56.9,47.5,30.18,North,0,0.0,0.0,71,0.00,,,0.00,WUHU216HW,2013-08-04 13:57:00,
2013-08-04 08:02:00,57.4,48.1,30.18,North,0,0.0,0.0,71,0.00,,,0.00,WUHU216HW,2013-08-04 14:02:00,
2013-08-04 08:07:00,58.0,47.9,30.18,North,0,0.0,0.0,69,0.00,,,0.00,WUHU216HW,2013-08-04 14:07:00,
2013-08-04 08:12:00,58.3,48.2,30.18,North,0,0.0,0.0,69,0.00,,,0.00,WUHU216HW,2013-08-04 14:12:00,
2013-08-04 08:17:00,58.9,48.3,30.18,North,0,0.0,0.0,68,0.00,,,0.00,WUHU216HW,2013-08-04 14:17:00,
2013-08-04 08:22:00,59.2,48.2,30.18,North,0,0.0,0.0,67,0.00,,,0.00,WUHU216HW,2013-08-04 14:22:00,
2013-08-04 08:27:00,59.6,48.6,30.18,North,0,0.0,0.0,67,0.00,,,0.00,WUHU216HW,2013-08-04 14:27:00,
2013-08-04 08:32:00,60.1,48.8,30.18,North,0,0.0,0.0,66,0.00,,,0.00,WUHU216HW,2013-08-04 14:32:00,
2013-08-04 08:38:00,60.7,49.3,30.18,North,0,0.0,0.0,66,0.00,,,0.00,WUHU216HW,2013-08-04 14:38:00,
2013-08-04 08:43:00,61.2,49.8,30.18,North,0,0.0,0.0,66,0.00,,,0.00,WUHU216HW,2013-08-04 14:43:00,
2013-08-04 08:48:00,61.7,49.9,30.17,North,0,0.0,0.0,65,0.00,,,0.00,WUHU216HW,2013-08-04 14:48:00,
2013-08-04 08:52:00,62.3,50.3,30.18,North,0,0.0,0.0,65,0.00,,,0.00,WUHU216HW,2013-08-04 14:52:00,
2013-08-04 08:57:00,63.0,51.0,30.17,North,0,0.0,0.0,65,0.00,,,0.00,WUHU216HW,2013-08-04 14:57:00,
2013-08-04 09:02:00,63.7,51.3,30.17,North,0,0.0,0.0,64,0.00,,,0.00,WUHU216HW,2013-08-04 15:02:00,
2013-08-04 09:08:00,64.4,51.5,30.17,North,0,0.0,0.0,63,0.00,,,0.00,WUHU216HW,2013-08-04 15:08:00,
2013-08-04 09:13:00,65.0,51.6,30.17,North,0,0.0,0.0,62,0.00,,,0.00,WUHU216HW,2013-08-04 15:13:00,
2013-08-04 09:18:00,65.3,51.9,30.17,North,0,0.0,0.0,62,0.00,,,0.00,WUHU216HW,2013-08-04 15:18:00,
2013-08-04 09:23:00,65.9,52.1,30.17,North,0,0.0,0.0,61,0.00,,,0.00,WUHU216HW,2013-08-04 15:23:00,
2013-08-04 09:28:00,66.4,52.6,30.16,North,0,0.0,0.0,61,0.00,,,0.00,WUHU216HW,2013-08-04 15:28:00,
2013-08-04 09:33:00,67.0,53.1,30.16,North,0,0.0,0.0,61,0.00,,,0.00,WUHU216HW,2013-08-04 15:33:00,
2013-08-04 09:38:00,67.5,52.2,30.16,North,0,0.0,0.0,58,0.00,,,0.00,WUHU216HW,2013-08-04 15:38:00,
2013-08-04 09:43:00,67.9,52.5,30.16,North,0,0.0,0.0,58,0.00,,,0.00,WUHU216HW,2013-08-04 15:43:00,
2013-08-04 09:47:00,68.8,52.4,30.16,North,0,0.0,0.0,56,0.00,,,0.00,WUHU216HW,2013-08-04 15:47:00,
2013-08-04 09:53:00,69.8,51.9,30.16,North,0,0.0,0.0,53,0.00,,,0.00,WUHU216HW,2013-08-04 15:53:00,
2013-08-04 09:57:00,70.2,52.7,30.15,North,0,0.0,0.0,54,0.00,,,0.00,WUHU216HW,2013-08-04 15:57:00,
2013-08-04 10:02:00,70.7,52.8,30.15,North,0,0.0,0.0,53,0.00,,,0.00,WUHU216HW,2013-08-04 16:02:00,
2013-08-04 10:08:00,71.3,52.8,30.15,North,0,0.0,0.0,52,0.00,,,0.00,WUHU216HW,2013-08-04 16:08:00,
2013-08-04 10:13:00,71.5,52.4,30.15,North,0,0.0,0.0,51,0.00,,,0.00,WUHU216HW,2013-08-04 16:13:00,
2013-08-04 10:17:00,72.0,52.4,30.15,North,0,0.0,0.0,50,0.00,,,0.00,WUHU216HW,2013-08-04 16:17:00,
2013-08-04 10:23:00,72.2,52.5,30.15,North,0,0.0,0.0,50,0.00,,,0.00,WUHU216HW,2013-08-04 16:23:00,
2013-08-04 10:28:00,72.4,52.7,30.15,North,0,0.0,0.0,50,0.00,,,0.00,WUHU216HW,2013-08-04 16:28:00,
2013-08-04 10:33:00,73.1,52.8,30.15,North,0,0.0,0.0,49,0.00,,,0.00,WUHU216HW,2013-08-04 16:33:00,
2013-08-04 10:38:00,73.3,52.3,30.15,North,0,0.0,0.0,48,0.00,,,0.00,WUHU216HW,2013-08-04 16:38:00,
2013-08-04 10:43:00,73.4,51.8,30.15,North,0,0.0,0.0,47,0.00,,,0.00,WUHU216HW,2013-08-04 16:43:00,
2013-08-04 10:47:00,73.6,52.7,30.14,North,0,0.0,0.0,48,0.00,,,0.00,WUHU216HW,2013-08-04 16:47:00,
2013-08-04 10:53:00,73.8,52.2,30.14,North,0,0.0,0.0,47,0.00,,,0.00,WUHU216HW,2013-08-04 16:53:00,
2013-08-04 10:58:00,73.8,52.8,30.14,North,0,0.0,0.0,48,0.00,,,0.00,WUHU216HW,2013-08-04 16:58:00,
2013-08-04 11:03:00,74.3,52.1,30.13,North,0,0.0,0.0,46,0.00,,,0.00,WUHU216HW,2013-08-04 17:03:00,
2013-08-04 11:08:00,74.3,52.1,30.13,North,0,0.0,0.0,46,0.00,,,0.00,WUHU216HW,2013-08-04 17:08:00,
2013-08-04 11:13:00,74.2,52.6,30.13,North,0,0.0,0.0,47,0.00,,,0.00,WUHU216HW,2013-08-04 17:13:00,
2013-08-04 11:18:00,74.9,52.7,30.13,North,0,0.0,0.0,46,0.00,,,0.00,WUHU216HW,2013-08-04 17:18:00,
2013-08-04 11:23:00,75.4,52.6,30.13,North,0,0.0,0.0,45,0.00,,,0.00,WUHU216HW,2013-08-04 17:23:00,
2013-08-04 11:28:00,76.1,51.4,30.13,North,0,0.0,0.0,42,0.00,,,0.00,WUHU216HW,2013-08-04 17:28:00,
2013-08-04 11:32:00,76.3,52.1,30.13,North,0,0.0,0.0,43,0.00,,,0.00,WUHU216HW,2013-08-04 17:32:00,
2013-08-04 11:38:00,76.9,52.0,30.13,North,0,0.0,0.0,42,0.00,,,0.00,WUHU216HW,2013-08-04 17:38:00,
2013-08-04 11:43:00,77.4,51.8,30.13,North,0,0.0,0.0,41,0.00,,,0.00,WUHU216HW,2013-08-04 17:43:00,
2013-08-04 11:48:00,77.8,52.2,30.13,North,0,0.0,0.0,41,0.00,,,0.00,WUHU216HW,2013-08-04 17:48:00,
2013-08-04 11:53:00,77.8,51.6,30.13,North,0,0.0,0.0,40,0.00,,,0.00,WUHU216HW,2013-08-04 17:53:00,
2013-08-04 11:58:00,77.4,50.5,30.13,North,0,0.0,0.0,39,0.00,,,0.00,WUHU216HW,2013-08-04 17:58:00,
2013-08-04 12:03:00,76.7,51.2,30.13,North,0,0.0,0.0,41,0.00,,,0.00,WUHU216HW,2013-08-04 18:03:00,
2013-08-04 12:08:00,77.9,50.2,30.13,North,0,0.0,0.0,38,0.00,,,0.00,WUHU216HW,2013-08-04 18:08:00,
2013-08-04 12:13:00,78.7,47.8,30.12,North,0,0.0,0.0,34,0.00,,,0.00,WUHU216HW,2013-08-04 18:13:00,
2013-08-04 12:18:00,78.5,46.8,30.12,North,0,0.0,0.0,33,0.00,,,0.00,WUHU216HW,2013-08-04 18:18:00,
2013-08-04 12:23:00,78.1,46.5,30.12,North,0,0.0,0.0,33,0.00,,,0.00,WUHU216HW,2013-08-04 18:23:00,
2013-08-04 12:28:00,78.8,47.9,30.12,North,0,0.0,0.0,34,0.00,,,0.00,WUHU216HW,2013-08-04 18:28:00,
2013-08-04 12:33:00,79.6,47.0,30.12,North,0,0.0,0.0,32,0.00,,,0.00,WUHU216HW,2013-08-04 18:33:00,
2013-08-04 12:38:00,80.1,48.2,30.12,North,0,0.0,0.0,33,0.00,,,0.00,WUHU216HW,2013-08-04 18:38:00,
2013-08-04 12:43:00,80.6,46.4,30.12,North,0,0.0,0.0,30,0.00,,,0.00,WUHU216HW,2013-08-04 18:43:00,
2013-08-04 12:48:00,81.2,44.8,30.11,North,0,0.0,0.0,28,0.00,,,0.00,WUHU216HW,2013-08-04 18:48:00,
2013-08-04 12:53:00,81.7,45.2,30.11,North,0,0.0,0.0,28,0.00,,,0.00,WUHU216HW,2013-08-04 18:53:00,
2013-08-04 12:58:00,82.3,45.6,30.11,North,0,0.0,0.0,28,0.00,,,0.00,WUHU216HW,2013-08-04 18:58:00,
2013-08-04 13:03:00,82.6,47.0,30.11,North,0,0.0,0.0,29,0.00,,,0.00,WUHU216HW,2013-08-04 19:03:00,
2013-08-04 13:08:00,82.8,46.1,30.11,North,0,0.0,0.0,28,0.00,,,0.00,WUHU216HW,2013-08-04 19:08:00,
2013-08-04 13:13:00,82.6,46.0,30.11,North,0,0.0,0.0,28,0.00,,,0.00,WUHU216HW,2013-08-04 19:13:00,
2013-08-04 13:18:00,81.7,43.1,30.11,North,0,0.0,0.0,26,0.00,,,0.00,WUHU216HW,2013-08-04 19:18:00,
2013-08-04 13:23:00,81.2,42.7,30.10,North,0,0.0,0.0,26,0.00,,,0.00,WUHU216HW,2013-08-04 19:23:00,
2013-08-04 13:28:00,80.6,42.3,30.10,North,0,0.0,0.0,26,0.00,,,0.00,WUHU216HW,2013-08-04 19:28:00,
2013-08-04 13:33:00,81.0,41.5,30.10,North,0,0.0,0.0,25,0.00,,,0.00,WUHU216HW,2013-08-04 19:33:00,
2013-08-04 13:38:00,81.2,42.7,30.10,North,0,0.0,0.0,26,0.00,,,0.00,WUHU216HW,2013-08-04 19:38:00,
2013-08-04 13:43:00,81.4,41.8,30.10,North,0,0.0,0.0,25,0.00,,,0.00,WUHU216HW,2013-08-04 19:43:00,
2013-08-04 13:48:00,81.9,42.2,30.10,North,0,0.0,0.0,25,0.00,,,0.00,WUHU216HW,2013-08-04 19:48:00,
2013-08-04 13:53:00,82.1,43.4,30.10,North,0,0.0,0.0,26,0.00,,,0.00,WUHU216HW,2013-08-04 19:53:00,
2013-08-04 13:58:00,82.8,42.9,30.10,North,0,0.0,0.0,25,0.00,,,0.00,WUHU216HW,2013-08-04 19:58:00,
2013-08-04 14:03:00,83.2,42.2,30.10,North,0,0.0,0.0,24,0.00,,,0.00,WUHU216HW,2013-08-04 20:03:00,
2013-08-04 14:08:00,83.5,44.7,30.10,North,0,0.0,0.0,26,0.00,,,0.00,WUHU216HW,2013-08-04 20:08:00,
2013-08-04 14:13:00,83.9,43.9,30.10,North,0,0.0,0.0,25,0.00,,,0.00,WUHU216HW,2013-08-04 20:13:00,
2013-08-04 14:18:00,84.6,45.5,30.09,North,0,0.0,0.0,26,0.00,,,0.00,WUHU216HW,2013-08-04 20:18:00,
2013-08-04 14:23:00,84.4,43.3,30.09,North,0,0.0,0.0,24,0.00,,,0.00,WUHU216HW,2013-08-04 20:23:00,
2013-08-04 14:28:00,85.1,42.9,30.09,North,0,0.0,0.0,23,0.00,,,0.00,WUHU216HW,2013-08-04 20:28:00,
2013-08-04 14:33:00,85.7,43.3,30.09,North,0,0.0,0.0,23,0.00,,,0.00,WUHU216HW,2013-08-04 20:33:00,
2013-08-04 14:38:00,85.9,43.4,30.09,North,0,0.0,0.0,23,0.00,,,0.00,WUHU216HW,2013-08-04 20:38:00,
2013-08-04 14:43:00,86.4,44.9,30.09,North,0,0.0,0.0,24,0.00,,,0.00,WUHU216HW,2013-08-04 20:43:00,
2013-08-04 14:48:00,85.9,38.4,30.09,North,0,0.0,0.0,19,0.00,,,0.00,WUHU216HW,2013-08-04 20:48:00,
2013-08-04 14:53:00,84.8,40.4,30.09,North,0,0.0,0.0,21,0.00,,,0.00,WUHU216HW,2013-08-04 20:53:00,
2013-08-04 14:58:00,84.4,40.1,30.09,North,0,0.0,0.0,21,0.00,,,0.00,WUHU216HW,2013-08-04 20:58:00,
2013-08-04 15:03:00,84.2,40.0,30.09,North,0,0.0,0.0,21,0.00,,,0.00,WUHU216HW,2013-08-04 21:03:00,
2013-08-04 15:08:00,84.4,40.1,30.08,North,0,0.0,0.0,21,0.00,,,0.00,WUHU216HW,2013-08-04 21:08:00,
2013-08-04 15:13:00,84.1,39.8,30.08,North,0,0.0,0.0,21,0.00,,,0.00,WUHU216HW,2013-08-04 21:13:00,
2013-08-04 15:18:00,84.2,37.2,30.08,North,0,0.0,0.0,19,0.00,,,0.00,WUHU216HW,2013-08-04 21:18:00,
2013-08-04 15:23:00,84.6,39.2,30.08,North,0,0.0,0.0,20,0.00,,,0.00,WUHU216HW,2013-08-04 21:23:00,
2013-08-04 15:28:00,84.6,37.4,30.08,North,0,0.0,0.0,19,0.00,,,0.00,WUHU216HW,2013-08-04 21:28:00,
2013-08-04 15:33:00,84.6,37.4,30.08,North,0,0.0,0.0,19,0.00,,,0.00,WUHU216HW,2013-08-04 21:33:00,
2013-08-04 15:38:00,84.8,37.6,30.08,North,0,0.0,0.0,19,0.00,,,0.00,WUHU216HW,2013-08-04 21:38:00,
2013-08-04 15:43:00,84.4,37.4,30.07,North,0,0.0,0.0,19,0.00,,,0.00,WUHU216HW,2013-08-04 21:43:00,
2013-08-04 15:48:00,85.0,37.7,30.07,North,0,0.0,0.0,19,0.00,,,0.00,WUHU216HW,2013-08-04 21:48:00,
2013-08-04 15:49:00,85.1,36.2,30.07,North,0,0.0,0.0,18,0.00,,,0.00,WUHU216HW,2013-08-04 21:49:00,
2013-08-04 15:54:00,85.3,38.1,30.07,North,0,0.0,0.0,19,0.00,,,0.00,WUHU216HW,2013-08-04 21:54:00,
2013-08-04 15:59:00,85.1,36.2,30.07,North,0,0.0,0.0,18,0.00,,,0.00,WUHU216HW,2013-08-04 21:59:00,
2013-08-04 16:03:00,85.1,36.2,30.07,North,0,0.0,0.0,18,0.00,,,0.00,WUHU216HW,2013-08-04 22:03:00,
2013-08-04 16:09:00,85.3,38.1,30.07,North,0,0.0,0.0,19,0.00,,,0.00,WUHU216HW,2013-08-04 22:09:00,
2013-08-04 16:14:00,85.3,36.4,30.07,North,0,0.0,0.0,18,0.00,,,0.00,WUHU216HW,2013-08-04 22:14:00,
2013-08-04 16:19:00,85.3,36.4,30.07,North,0,0.0,0.0,18,0.00,,,0.00,WUHU216HW,2013-08-04 22:19:00,
2013-08-04 16:24:00,85.3,38.1,30.07,North,0,0.0,0.0,19,0.00,,,0.00,WUHU216HW,2013-08-04 22:24:00,
2013-08-04 16:29:00,85.3,38.1,30.06,North,0,0.0,0.0,19,0.00,,,0.00,WUHU216HW,2013-08-04 22:29:00,
2013-08-04 16:34:00,85.1,36.2,30.06,North,0,0.0,0.0,18,0.00,,,0.00,WUHU216HW,2013-08-04 22:34:00,
2013-08-04 16:39:00,85.3,36.4,30.06,North,0,0.0,0.0,18,0.00,,,0.00,WUHU216HW,2013-08-04 22:39:00,
2013-08-04 16:44:00,85.5,36.5,30.06,North,0,0.0,0.0,18,0.00,,,0.00,WUHU216HW,2013-08-04 22:44:00,
2013-08-04 16:49:00,85.9,38.4,30.06,North,0,0.0,0.0,19,0.00,,,0.00,WUHU216HW,2013-08-04 22:49:00,
2013-08-04 16:54:00,86.0,36.9,30.06,North,0,0.0,0.0,18,0.00,,,0.00,WUHU216HW,2013-08-04 22:54:00,
2013-08-04 16:59:00,86.8,35.8,30.05,North,0,0.0,0.0,17,0.00,,,0.00,WUHU216HW,2013-08-04 22:59:00,
2013-08-04 17:04:00,87.8,36.7,30.05,North,0,0.0,0.0,17,0.00,,,0.00,WUHU216HW,2013-08-04 23:04:00,
2013-08-04 17:09:00,88.2,37.0,30.05,North,0,0.0,0.0,17,0.00,,,0.00,WUHU216HW,2013-08-04 23:09:00,
2013-08-04 17:14:00,88.6,37.4,30.05,North,0,0.0,0.0,17,0.00,,,0.00,WUHU216HW,2013-08-04 23:14:00,
2013-08-04 17:18:00,88.7,35.7,30.05,North,0,0.0,0.0,16,0.00,,,0.00,WUHU216HW,2013-08-04 23:18:00,
2013-08-04 17:24:00,88.6,35.6,30.05,North,0,0.0,0.0,16,0.00,,,0.00,WUHU216HW,2013-08-04 23:24:00,
2013-08-04 17:29:00,88.7,35.7,30.05,North,0,0.0,0.0,16,0.00,,,0.00,WUHU216HW,2013-08-04 23:29:00,
2013-08-04 17:34:00,89.1,36.0,30.05,North,0,0.0,0.0,16,0.00,,,0.00,WUHU216HW,2013-08-04 23:34:00,
2013-08-04 17:39:00,89.3,36.1,30.05,North,0,0.0,0.0,16,0.00,,,0.00,WUHU216HW,2013-08-04 23:39:00,
2013-08-04 17:44:00,88.4,37.2,30.05,North,0,0.0,0.0,17,0.00,,,0.00,WUHU216HW,2013-08-04 23:44:00,
2013-08-04 17:49:00,88.4,37.2,30.05,North,0,0.0,0.0,17,0.00,,,0.00,WUHU216HW,2013-08-04 23:49:00,
2013-08-04 17:54:00,88.4,37.2,30.05,North,0,0.0,0.0,17,0.00,,,0.00,WUHU216HW,2013-08-04 23:54:00,
2013-08-04 17:59:00,88.2,37.0,30.05,North,0,0.0,0.0,17,0.00,,,0.00,WUHU216HW,2013-08-04 23:59:00,
2013-08-04 18:04:00,88.6,37.4,30.04,North,0,0.0,0.0,17,0.00,,,0.00,WUHU216HW,2013-08-05 00:04:00,
2013-08-04 18:08:00,88.6,35.6,30.04,North,0,0.0,0.0,16,0.00,,,0.00,WUHU216HW,2013-08-05 00:08:00,
2013-08-04 18:14:00,88.2,35.3,30.04,North,0,0.0,0.0,16,0.00,,,0.00,WUHU216HW,2013-08-05 00:14:00,
2013-08-04 18:18:00,88.2,35.3,30.04,North,0,0.0,0.0,16,0.00,,,0.00,WUHU216HW,2013-08-05 00:18:00,
2013-08-04 18:24:00,87.8,35.0,30.05,North,0,0.0,0.0,16,0.00,,,0.00,WUHU216HW,2013-08-05 00:24:00,
2013-08-04 18:29:00,88.2,35.3,30.04,North,0,0.0,0.0,16,0.00,,,0.00,WUHU216HW,2013-08-05 00:29:00,
2013-08-04 18:34:00,88.4,35.5,30.04,North,0,0.0,0.0,16,0.00,,,0.00,WUHU216HW,2013-08-05 00:34:00,
2013-08-04 18:39:00,88.0,35.2,30.04,North,0,0.0,0.0,16,0.00,,,0.00,WUHU216HW,2013-08-05 00:39:00,
2013-08-04 18:43:00,87.7,34.8,30.04,North,0,0.0,0.0,16,0.00,,,0.00,WUHU216HW,2013-08-05 00:43:00,
2013-08-04 18:49:00,87.1,34.4,30.04,North,0,0.0,0.0,16,0.00,,,0.00,WUHU216HW,2013-08-05 00:49:00,
2013-08-04 18:54:00,86.4,33.8,30.04,North,0,0.0,0.0,16,0.00,,,0.00,WUHU216HW,2013-08-05 00:54:00,
2013-08-04 18:59:00,86.6,33.9,30.04,North,0,0.0,0.0,16,0.00,,,0.00,WUHU216HW,2013-08-05 00:59:00,
2013-08-04 19:04:00,86.4,33.8,30.04,North,0,0.0,0.0,16,0.00,,,0.00,WUHU216HW,2013-08-05 01:04:00,
2013-08-04 19:09:00,86.4,33.8,30.04,North,0,0.0,0.0,16,0.00,,,0.00,WUHU216HW,2013-08-05 01:09:00,
2013-08-04 19:14:00,86.4,33.8,30.04,North,0,0.0,0.0,16,0.00,,,0.00,WUHU216HW,2013-08-05 01:14:00,
2013-08-04 19:19:00,86.2,33.7,30.04,North,0,0.0,0.0,16,0.00,,,0.00,WUHU216HW,2013-08-05 01:19:00,
2013-08-04 19:24:00,85.7,33.2,30.04,North,0,0.0,0.0,16,0.00,,,0.00,WUHU216HW,2013-08-05 01:24:00,
2013-08-04 19:28:00,85.7,33.2,30.04,North,0,0.0,0.0,16,0.00,,,0.00,WUHU216HW,2013-08-05 01:28:00,
2013-08-04 19:34:00,85.5,33.0,30.05,North,0,0.0,0.0,16,0.00,,,0.00,WUHU216HW,2013-08-05 01:34:00,
2013-08-04 19:39:00,85.7,33.2,30.05,North,0,0.0,0.0,16,0.00,,,0.00,WUHU216HW,2013-08-05 01:39:00,
2013-08-04 19:44:00,84.4,33.9,30.05,North,0,0.0,0.0,17,0.00,,,0.00,WUHU216HW,2013-08-05 01:44:00,
2013-08-04 19:49:00,83.2,34.7,30.05,North,0,0.0,0.0,18,0.00,,,0.00,WUHU216HW,2013-08-05 01:49:00,
2013-08-04 19:54:00,82.4,34.0,30.05,North,0,0.0,0.0,18,0.00,,,0.00,WUHU216HW,2013-08-05 01:54:00,
2013-08-04 19:59:00,81.9,33.7,30.05,North,0,0.0,0.0,18,0.00,,,0.00,WUHU216HW,2013-08-05 01:59:00,
2013-08-04 20:04:00,81.5,35.0,30.05,North,0,0.0,0.0,19,0.00,,,0.00,WUHU216HW,2013-08-05 02:04:00,
2013-08-04 20:09:00,81.0,34.6,30.05,North,0,0.0,0.0,19,0.00,,,0.00,WUHU216HW,2013-08-05 02:09:00,
2013-08-04 20:14:00,80.8,34.5,30.05,North,0,0.0,0.0,19,0.00,,,0.00,WUHU216HW,2013-08-05 02:14:00,
2013-08-04 20:18:00,80.5,34.1,30.05,North,0,0.0,0.0,19,0.00,,,0.00,WUHU216HW,2013-08-05 02:18:00,
2013-08-04 20:23:00,80.1,33.9,30.05,North,0,0.0,0.0,19,0.00,,,0.00,WUHU216HW,2013-08-05 02:23:00,
2013-08-04 20:29:00,79.7,35.2,30.05,North,0,0.0,0.0,20,0.00,,,0.00,WUHU216HW,2013-08-05 02:29:00,
2013-08-04 20:33:00,79.4,35.9,30.06,North,0,0.0,0.0,21,0.00,,,0.00,WUHU216HW,2013-08-05 02:33:00,
2013-08-04 20:39:00,78.8,35.5,30.06,North,0,0.0,0.0,21,0.00,,,0.00,WUHU216HW,2013-08-05 02:39:00,
2013-08-04 20:44:00,78.3,35.0,30.06,North,0,0.0,0.0,21,0.00,,,0.00,WUHU216HW,2013-08-05 02:44:00,
2013-08-04 20:49:00,77.9,34.8,30.06,North,0,0.0,0.0,21,0.00,,,0.00,WUHU216HW,2013-08-05 02:49:00,
2013-08-04 20:54:00,77.8,35.7,30.06,North,0,0.0,0.0,22,0.00,,,0.00,WUHU216HW,2013-08-05 02:54:00,
2013-08-04 20:59:00,77.4,35.3,30.06,North,0,0.0,0.0,22,0.00,,,0.00,WUHU216HW,2013-08-05 02:59:00,
2013-08-04 21:04:00,77.2,35.2,30.06,North,0,0.0,0.0,22,0.00,,,0.00,WUHU216HW,2013-08-05 03:04:00,
2013-08-04 21:09:00,77.0,35.0,30.07,North,0,0.0,0.0,22,0.00,,,0.00,WUHU216HW,2013-08-05 03:09:00,
2013-08-04 21:14:00,76.5,34.6,30.07,North,0,0.0,0.0,22,0.00,,,0.00,WUHU216HW,2013-08-05 03:14:00,
2013-08-04 21:19:00,76.0,34.1,30.06,North,0,0.0,0.0,22,0.00,,,0.00,WUHU216HW,2013-08-05 03:19:00,
2013-08-04 21:24:00,75.1,34.5,30.07,North,0,0.0,0.0,23,0.00,,,0.00,WUHU216HW,2013-08-05 03:24:00,
2013-08-04 21:29:00,74.3,33.9,30.07,North,0,0.0,0.0,23,0.00,,,0.00,WUHU216HW,2013-08-05 03:29:00,
2013-08-04 21:34:00,73.6,34.2,30.07,North,0,0.0,0.0,24,0.00,,,0.00,WUHU216HW,2013-08-05 03:34:00,
2013-08-04 21:39:00,72.5,34.4,30.07,North,0,0.0,0.0,25,0.00,,,0.00,WUHU216HW,2013-08-05 03:39:00,
2013-08-04 21:44:00,71.8,33.8,30.08,North,0,0.0,0.0,25,0.00,,,0.00,WUHU216HW,2013-08-05 03:44:00,
2013-08-04 21:49:00,71.3,34.3,30.08,North,0,0.0,0.0,26,0.00,,,0.00,WUHU216HW,2013-08-05 03:49:00,
2013-08-04 21:54:00,70.9,34.0,30.08,North,0,0.0,0.0,26,0.00,,,0.00,WUHU216HW,2013-08-05 03:54:00,
2013-08-04 21:59:00,70.7,33.9,30.08,North,0,0.0,0.0,26,0.00,,,0.00,WUHU216HW,2013-08-05 03:59:00,
2013-08-04 22:01:00,70.6,33.7,30.08,North,0,0.0,0.0,26,0.00,,,0.00,WUHU216HW,2013-08-05 04:01:00,
2013-08-04 22:06:00,70.4,33.5,30.08,North,0,0.0,0.0,26,0.00,,,0.00,WUHU216HW,2013-08-05 04:06:00,
2013-08-04 22:11:00,70.0,35.2,30.08,North,0,0.0,0.0,28,0.00,,,0.00,WUHU216HW,2013-08-05 04:11:00,
2013-08-04 22:16:00,69.7,34.9,30.08,North,0,0.0,0.0,28,0.00,,,0.00,WUHU216HW,2013-08-05 04:16:00,
2013-08-04 22:21:00,69.3,34.6,30.09,North,0,0.0,0.0,28,0.00,,,0.00,WUHU216HW,2013-08-05 04:21:00,
2013-08-04 22:26:00,68.6,33.9,30.09,North,0,0.0,0.0,28,0.00,,,0.00,WUHU216HW,2013-08-05 04:26:00,
2013-08-04 22:32:00,67.7,34.2,30.09,North,0,0.0,0.0,29,0.00,,,0.00,WUHU216HW,2013-08-05 04:32:00,
2013-08-04 22:37:00,66.6,34.3,30.09,North,0,0.0,0.0,30,0.00,,,0.00,WUHU216HW,2013-08-05 04:37:00,
2013-08-04 22:41:00,65.9,34.4,30.09,North,0,0.0,0.0,31,0.00,,,0.00,WUHU216HW,2013-08-05 04:41:00,
2013-08-04 22:47:00,65.5,34.1,30.09,North,0,0.0,0.0,31,0.00,,,0.00,WUHU216HW,2013-08-05 04:47:00,
2013-08-04 22:52:00,65.2,33.8,30.09,North,0,0.0,0.0,31,0.00,,,0.00,WUHU216HW,2013-08-05 04:52:00,
2013-08-04 22:57:00,64.6,33.3,30.09,North,0,0.0,0.0,31,0.00,,,0.00,WUHU216HW,2013-08-05 04:57:00,
2013-08-04 23:02:00,64.4,33.8,30.09,North,0,0.0,0.0,32,0.00,,,0.00,WUHU216HW,2013-08-05 05:02:00,
2013-08-04 23:07:00,63.9,33.4,30.09,North,0,0.0,0.0,32,0.00,,,0.00,WUHU216HW,2013-08-05 05:07:00,
2013-08-04 23:12:00,63.7,33.2,30.09,North,0,0.0,0.0,32,0.00,,,0.00,WUHU216HW,2013-08-05 05:12:00,
2013-08-04 23:17:00,63.4,32.9,30.10,North,0,0.0,0.0,32,0.00,,,0.00,WUHU216HW,2013-08-05 05:17:00,
2013-08-04 23:22:00,63.0,33.3,30.10,North,0,0.0,0.0,33,0.00,,,0.00,WUHU216HW,2013-08-05 05:22:00,
2013-08-04 23:27:00,63.0,33.3,30.10,North,0,0.0,0.0,33,0.00,,,0.00,WUHU216HW,2013-08-05 05:27:00,
2013-08-04 23:32:00,63.0,33.3,30.10,North,0,0.0,0.0,33,0.00,,,0.00,WUHU216HW,2013-08-05 05:32:00,
2013-08-04 23:37:00,62.8,33.1,30.10,North,0,0.0,0.0,33,0.00,,,0.00,WUHU216HW,2013-08-05 05:37:00,
2013-08-04 23:42:00,62.6,32.9,30.10,North,0,0.0,0.0,33,0.00,,,0.00,WUHU216HW,2013-08-05 05:42:00,
2013-08-04 23:47:00,62.3,33.3,30.10,North,0,0.0,0.0,34,0.00,,,0.00,WUHU216HW,2013-08-05 05:47:00,
2013-08-04 23:52:00,61.9,32.3,30.10,North,0,0.0,0.0,33,0.00,,,0.00,WUHU216HW,2013-08-05 05:52:00,
2013-08-04 23:57:00,61.6,32.7,30.10,North,0,0.0,0.0,34,0.00,,,0.00,WUHU216HW,2013-08-05 05:57:00,